EDT,Max TemperatureF,Mean TemperatureF,Min TemperatureF,Max Dew PointF,MeanDew PointF,Min DewpointF,Max Humidity, Mean Humidity, Min Humidity, Max Sea Level PressureIn, Mean Sea Level PressureIn, Min Sea Level PressureIn, Max VisibilityMiles, Mean VisibilityMiles, Min VisibilityMiles, Max Wind SpeedMPH, Mean Wind SpeedMPH, Max Gust SpeedMPH,PrecipitationIn, CloudCover, Events, WindDirDegrees
2012-10-1,86,80,75,75,73,72,94,82,62,29.88,29.84,29.79,10,9,5,15,5,23,0.12,4,Rain-Thunderstorm,178
2012-10-2,84,78,73,75,73,72,94,89,70,30.07,29.95,29.87,10,9,5,14,6,21,0.09,4,Rain,194
2012-10-3,89,82,75,79,75,73,94,86,62,30.20,30.11,30.07,10,10,10,15,4,,0.00,2,Thunderstorm,148
2012-10-4,86,82,77,79,76,72,94,85,66,30.19,30.14,30.10,10,10,7,13,4,17,0.00,2,Thunderstorm,96
2012-10-5,87,84,78,77,76,72,89,82,62,30.13,30.05,29.97,10,9,7,13,4,,0.00,3,Rain-Thunderstorm,89
2012-10-6,86,78,71,77,73,70,94,87,70,30.01,29.96,29.91,10,9,2,15,3,24,0.46,3,Rain-Thunderstorm,134
2012-10-7,84,78,71,77,73,68,94,87,66,30.00,29.96,29.92,10,9,4,12,2,,0.00,2,Rain-Thunderstorm,17
2012-10-8,84,80,77,77,75,72,94,88,66,30.03,29.98,29.94,10,9,3,13,2,,0.01,2,Rain,101
2012-10-9,86,80,75,77,74,73,94,83,66,30.05,30.01,29.98,10,9,7,13,5,16,0.00,3,,13
2012-10-10,84,80,77,75,72,70,94,79,66,30.10,30.05,30.00,10,10,7,14,5,,0.00,4,Rain,20
2012-10-11,84,80,77,72,65,61,83,62,48,30.15,30.10,30.07,10,9,7,17,9,23,0.00,3,,29
2012-10-12,84,80,77,64,62,59,65,55,45,30.15,30.11,30.08,10,9,7,16,13,29,0.00,4,,35
2012-10-13,84,80,77,68,64,61,69,59,48,30.16,30.10,30.07,10,9,5,24,15,30,0.00,3,Rain,47
2012-10-14,84,80,77,75,71,64,94,74,58,30.10,30.03,29.98,10,8,1,18,15,40,0.23,6,Rain-Thunderstorm,68
2012-10-15,84,80,77,73,72,70,89,77,66,29.99,29.90,29.82,10,8,3,16,9,22,0.17,4,Rain-Thunderstorm,62
2012-10-16,84,78,73,72,70,68,94,80,58,29.88,29.84,29.80,10,9,7,14,5,18,0.00,1,,354
2012-10-17,84,78,71,73,70,68,94,86,66,29.92,29.87,29.84,10,9,5,12,3,16,0.00,4,Rain-Thunderstorm,136
2012-10-18,86,78,71,77,72,70,94,88,70,29.90,29.87,29.83,10,9,4,10,2,17,0.00,5,Rain-Thunderstorm,167
2012-10-19,86,80,73,73,71,68,94,85,55,29.92,29.87,29.81,10,8,0,12,6,20,0.00,2,Fog-Thunderstorm,225
2012-10-20,80,76,71,73,68,63,94,80,54,29.96,29.91,29.86,10,9,7,16,4,20,0.00,1,Thunderstorm,293
2012-10-21,82,74,66,66,60,55,88,65,39,30.04,29.99,29.93,10,10,7,14,5,18,0.00,1,,19
2012-10-22,84,80,77,64,61,55,61,54,47,30.06,30.02,29.99,10,9,7,20,12,26,0.00,4,Rain,64
2012-10-23,82,78,75,72,64,57,89,62,50,30.03,30.00,29.97,10,10,7,18,14,25,0.00,5,Rain,83
2012-10-24,84,80,75,72,69,66,89,71,55,29.99,29.94,29.90,10,9,3,21,13,29,0.06,6,Rain,77
2012-10-25,82,78,73,73,70,64,89,75,58,29.89,29.80,29.71,10,7,4,23,14,32,0.00,5,Rain,60
2012-10-26,80,74,69,72,68,63,94,79,58,29.70,29.58,29.49,10,6,2,33,18,46,0.42,7,Rain,1
2012-10-27,73,70,68,68,64,61,94,80,69,29.68,29.55,29.45,10,9,6,23,17,34,0.02,5,Rain,298
2012-10-28,78,70,62,63,59,54,88,73,42,29.79,29.71,29.67,10,9,7,17,12,25,0.00,1,,287
2012-10-29,71,62,53,54,48,32,82,68,23,29.86,29.80,29.75,10,10,10,18,11,25,0.00,0,,286
2012-10-30,71,60,50,46,40,32,72,53,23,29.99,29.91,29.84,10,10,10,22,10,26,0.00,0,,280
2012-10-31,73,62,51,52,48,36,88,66,30,30.09,30.02,29.99,10,10,10,12,5,18,0.00,0,,273